Time;durP1;ratioP1;P1;durP2;ratioP2;P2;SDS_P1;SDS_P2;PMS_P1;PMS_P2;Temp;Humidity;BMP_temperature;BMP_pressure;BME280_temperature;BME280_humidity;BME280_pressure;Samples;Min_cycle;Max_cycle;Signal;HPM_P1;HPM_P2
2022/12/14 00:00:26;;;;;;;30.60;18.00;;;;;;;-8.82;91.35;97189.41;107581;1266;69330;-66
2022/12/14 00:03:16;;;;;;;33.60;18.70;;;;;;;-8.82;92.41;97187.89;107607;1265;59771;-65
2022/12/14 00:05:46;;;;;;;36.70;20.00;;;;;;;-8.79;92.17;97184.67;107664;1265;59710;-66
2022/12/14 00:08:17;;;;;;;30.40;18.60;;;;;;;-8.78;92.57;97183.17;107625;1269;71319;-66
2022/12/14 00:10:46;;;;;;;31.10;16.80;;;;;;;-8.79;92.57;97184.67;107661;1262;69873;-66
2022/12/14 00:13:15;;;;;;;27.50;16.60;;;;;;;-8.81;91.99;97177.92;107645;1265;69282;-66
2022/12/14 00:15:44;;;;;;;23.30;14.40;;;;;;;-8.82;91.88;97180.97;107644;1269;59773;-66
2022/12/14 00:18:13;;;;;;;25.70;13.60;;;;;;;-8.85;91.91;97180.11;107659;1265;59710;-65
2022/12/14 00:20:49;;;;;;;24.80;14.90;;;;;;;-8.87;92.22;97182.98;107641;1265;72069;-65
2022/12/14 00:23:19;;;;;;;19.70;13.00;;;;;;;-8.89;92.55;97188.90;107628;1269;69667;-66
2022/12/14 00:25:48;;;;;;;20.70;11.10;;;;;;;-8.87;93.46;97191.59;107646;1269;67694;-66
2022/12/14 00:28:18;;;;;;;21.00;13.70;;;;;;;-8.88;93.01;97193.11;107553;1270;59714;-66
2022/12/14 00:30:54;;;;;;;30.10;16.60;;;;;;;-8.93;92.50;97195.15;107658;1269;59791;-65
2022/12/14 00:33:26;;;;;;;24.50;14.50;;;;;;;-8.97;92.12;97196.67;107652;1265;71427;-65
2022/12/14 00:35:56;;;;;;;21.20;11.20;;;;;;;-9.01;92.53;97196.84;107629;1265;69123;-66
2022/12/14 00:38:26;;;;;;;;;;;;;;;-9.06;92.35;97201.23;107652;1265;68677;-66
2022/12/14 00:40:57;;;;;;;22.10;13.50;;;;;;;-9.08;92.52;97205.61;107641;1265;59709;-66
2022/12/14 00:43:27;;;;;;;25.70;13.00;;;;;;;-9.09;93.64;97204.27;107668;1265;59789;-65
2022/12/14 00:45:56;;;;;;;19.80;13.50;;;;;;;-9.10;93.46;97208.31;107635;1265;70987;-65
2022/12/14 00:48:26;;;;;;;20.60;11.90;;;;;;;-9.11;93.30;97204.76;107651;1265;69274;-66
2022/12/14 00:50:57;;;;;;;26.10;14.00;;;;;;;-9.11;93.02;97203.73;107673;1265;69254;-66
2022/12/14 00:53:27;;;;;;;18.30;10.60;;;;;;;-9.09;93.62;97196.00;107677;1269;59779;-65
2022/12/14 00:56:03;;;;;;;;;;;;;;;-9.11;93.27;97191.77;107638;1265;59734;-65
2022/12/14 00:58:33;;;;;;;19.60;12.80;;;;;;;-9.11;93.35;97192.93;107694;1269;72020;-65
2022/12/14 01:01:05;;;;;;;29.00;15.60;;;;;;;-9.11;93.24;97191.93;107636;1269;69256;-65
2022/12/14 01:03:35;;;;;;;29.10;16.20;;;;;;;-9.12;93.29;97191.77;107644;1266;70033;-66
2022/12/14 01:06:05;;;;;;;20.80;15.10;;;;;;;-9.13;92.49;97192.45;107627;1265;59728;-66
2022/12/14 01:08:34;;;;;;;25.30;15.00;;;;;;;-9.13;92.77;97183.48;107670;1269;59720;-66
2022/12/14 01:11:06;;;;;;;25.30;15.80;;;;;;;-9.12;92.01;97181.45;107637;1266;71258;-67
2022/12/14 01:13:37;;;;;;;24.50;14.10;;;;;;;-9.12;91.64;97180.61;107655;1269;69070;-66
2022/12/14 01:16:11;;;;;;;19.60;13.10;;;;;;;-9.12;91.72;97177.58;107638;1266;69404;-65
2022/12/14 01:18:42;;;;;;;21.40;13.40;;;;;;;-9.11;91.85;97176.39;107643;1269;59676;-65
2022/12/14 01:21:21;;;;;;;17.80;12.50;;;;;;;-9.11;91.28;97169.64;107686;1265;59731;-66
2022/12/14 01:23:53;;;;;;;23.30;14.00;;;;;;;-9.12;92.21;97169.30;107652;1266;72090;-66
2022/12/14 01:26:25;;;;;;;21.00;12.20;;;;;;;-9.13;92.50;97166.61;107658;1266;69209;-66
2022/12/14 01:28:57;;;;;;;20.50;12.00;;;;;;;-9.15;92.56;97163.41;107626;1269;68359;-66
2022/12/14 01:31:36;;;;;;;26.20;14.40;;;;;;;-9.18;92.37;97163.39;107607;1269;59705;-65
2022/12/14 01:34:07;;;;;;;22.70;13.90;;;;;;;-9.18;92.14;97162.73;107655;1269;59779;-65
2022/12/14 01:36:38;;;;;;;23.50;12.20;;;;;;;-9.18;92.50;97167.11;107676;1265;71504;-65
2022/12/14 01:39:14;;;;;;;22.90;13.30;;;;;;;-9.19;92.37;97167.61;107657;1269;69011;-66
2022/12/14 01:41:48;;;;;;;20.50;12.00;;;;;;;-9.20;91.87;97167.95;107635;1269;69892;-66
2022/12/14 01:44:17;;;;;;;19.50;11.50;;;;;;;-9.20;91.48;97164.90;107623;1269;59737;-66
2022/12/14 01:46:59;;;;;;;20.80;11.50;;;;;;;-9.20;91.28;97164.06;107659;1265;59735;-66
2022/12/14 01:49:39;;;;;;;19.20;10.80;;;;;;;-9.21;91.15;97164.23;107648;1265;72010;-66
2022/12/14 01:52:24;;;;;;;16.30;11.20;;;;;;;-9.23;91.47;97169.13;107682;1269;68383;-65
2022/12/14 01:55:14;;;;;;;23.00;12.10;;;;;;;-9.26;91.43;97174.52;107648;1268;68275;-65
2022/12/14 01:58:06;;;;;;;14.30;8.90;;;;;;;-9.31;91.80;97177.56;107617;1269;59785;-66
2022/12/14 02:00:37;;;;;;;20.60;11.90;;;;;;;-9.33;92.05;97180.08;107642;1269;59697;-66
2022/12/14 02:03:14;;;;;;;14.20;9.40;;;;;;;-9.34;91.84;97178.89;107641;1269;70837;-66
2022/12/14 02:05:58;;;;;;;23.40;14.60;;;;;;;-9.35;92.13;97176.87;107654;1269;69218;-66
2022/12/14 02:08:29;;;;;;;30.70;16.70;;;;;;;-9.37;92.19;97177.20;107639;1265;68720;-66
2022/12/14 02:11:01;;;;;;;33.20;16.20;;;;;;;-9.41;91.80;97181.41;107634;1269;59757;-66
2022/12/14 02:13:36;;;;;;;27.10;16.60;;;;;;;-9.49;91.58;97180.73;107642;1266;59785;-66
2022/12/14 02:16:07;;;;;;;26.90;14.60;;;;;;;-9.55;91.64;97181.73;107621;1265;72090;-66
2022/12/14 02:18:37;;;;;;;22.90;14.00;;;;;;;-9.59;92.15;97185.42;107659;1265;69118;-65
2022/12/14 02:21:48;;;;;;;19.70;11.30;;;;;;;-9.59;93.65;97182.23;107590;1266;69714;-65
2022/12/14 02:24:37;;;;;;;22.20;11.40;;;;;;;-9.61;93.62;97177.99;107666;1269;59735;-66
2022/12/14 02:27:25;;;;;;;15.00;10.40;;;;;;;-9.63;93.28;97179.00;107652;1269;59756;-66
2022/12/14 02:30:33;;;;;;;19.80;11.30;;;;;;;-9.65;93.05;97179.84;107628;1265;71235;-66
2022/12/14 02:33:30;;;;;;;16.10;10.90;;;;;;;-9.64;93.48;97176.14;107404;1269;69257;-66
2022/12/14 02:36:29;;;;;;;29.70;17.30;;;;;;;-9.63;93.49;97172.08;107653;1269;69302;-66
2022/12/14 02:39:11;;;;;;;26.90;14.30;;;;;;;-9.62;93.66;97170.23;107448;1265;59770;-65
2022/12/14 02:41:59;;;;;;;20.70;11.70;;;;;;;-9.65;93.42;97171.91;107635;1269;59723;-66
2022/12/14 02:44:49;;;;;;;23.60;13.70;;;;;;;-9.68;93.76;97174.77;107615;1265;70441;-65
2022/12/14 02:47:32;;;;;;;18.60;10.00;;;;;;;-9.69;93.71;97174.61;107618;1265;69047;-65
2022/12/14 02:50:12;;;;;;;21.20;12.40;;;;;;;-9.71;93.91;97174.60;107625;1266;68814;-65
2022/12/14 02:53:21;;;;;;;22.50;14.30;;;;;;;-9.70;93.90;97174.61;107615;1269;59770;-65
2022/12/14 02:55:53;;;;;;;20.20;11.40;;;;;;;-9.70;94.20;97172.25;107642;1265;59744;-65
2022/12/14 02:58:39;;;;;;;17.70;10.70;;;;;;;-9.70;94.27;97171.58;107641;1269;70788;-65
2022/12/14 03:01:15;;;;;;;18.10;10.90;;;;;;;-9.70;93.90;97171.58;107653;1269;68345;-66
2022/12/14 03:03:45;;;;;;;14.00;8.60;;;;;;;-9.72;93.59;97169.19;107659;1269;69348;-69
2022/12/14 03:06:24;;;;;;;20.10;11.30;;;;;;;-9.73;93.52;97165.33;107659;1260;59796;-66
2022/12/14 03:09:08;;;;;;;19.50;10.70;;;;;;;-9.74;93.12;97168.20;107666;1269;59728;-66
2022/12/14 03:11:51;;;;;;;19.80;11.10;;;;;;;-9.76;92.98;97170.19;107651;1269;72079;-66
2022/12/14 03:14:38;;;;;;;15.00;9.70;;;;;;;-9.79;93.07;97169.02;107645;1266;68992;-66
2022/12/14 03:17:16;;;;;;;14.80;10.00;;;;;;;-9.78;93.36;97164.45;107653;1269;69835;-66
2022/12/14 03:20:10;;;;;;;19.60;11.10;;;;;;;-9.77;92.62;97159.39;107529;1272;59708;-65
2022/12/14 03:22:52;;;;;;;23.80;14.00;;;;;;;-9.70;94.22;97159.59;107661;1269;59707;-65
2022/12/14 03:25:45;;;;;;;24.80;16.60;;;;;;;-9.68;94.06;97156.73;107680;1269;72158;-65
2022/12/14 03:28:23;;;;;;;19.70;12.40;;;;;;;-9.68;93.87;97152.51;107638;1269;69552;-66
2022/12/14 03:31:05;;;;;;;19.30;12.80;;;;;;;-9.68;93.35;97152.34;107642;1269;68307;-66
2022/12/14 03:33:37;;;;;;;14.10;10.30;;;;;;;-9.68;93.30;97155.55;107640;1269;59713;-66
2022/12/14 03:36:17;;;;;;;20.50;11.70;;;;;;;-9.67;94.11;97157.23;107650;1265;59763;-66
2022/12/14 03:38:52;;;;;;;26.00;13.50;;;;;;;-9.67;93.50;97154.02;107605;1265;70596;-67
2022/12/14 03:41:49;;;;;;;24.30;14.90;;;;;;;-9.68;92.65;97156.05;107666;1265;69829;-66
2022/12/14 03:44:42;;;;;;;26.60;13.20;;;;;;;-9.69;91.97;97149.14;107658;1265;69797;-65
2022/12/14 03:47:40;;;;;;;20.20;11.80;;;;;;;-9.69;91.82;97149.48;107660;1265;59696;-66
2022/12/14 03:50:18;;;;;;;21.60;13.20;;;;;;;-9.70;91.75;97145.94;107655;1265;59709;-66
2022/12/14 03:53:08;;;;;;;18.50;12.10;;;;;;;-9.71;91.70;97140.52;107657;1269;71436;-65
2022/12/14 03:56:05;;;;;;;19.70;11.30;;;;;;;-9.71;91.54;97139.00;107637;1265;69254;-66
2022/12/14 03:58:48;;;;;;;17.50;12.30;;;;;;;-9.70;91.49;97135.99;107639;1269;69251;-66
2022/12/14 04:01:57;;;;;;;22.00;13.30;;;;;;;-9.70;91.79;97131.09;107635;1269;59772;-66
2022/12/14 04:04:39;;;;;;;19.90;13.00;;;;;;;-9.70;92.68;97127.89;107688;1264;59737;-66
2022/12/14 04:07:21;;;;;;;26.50;14.10;;;;;;;-9.71;92.44;97126.02;107633;1269;70985;-66
2022/12/14 04:09:57;;;;;;;24.10;14.40;;;;;;;-9.72;92.60;97129.22;107654;1269;69190;-66
2022/12/14 04:22:17;;;;;;;21.90;12.90;;;;;;;-9.76;92.04;97130.22;107637;1265;70718;-66
2022/12/14 04:27:52;;;;;;;21.40;12.50;;;;;;;-9.73;91.81;97132.77;107631;1269;69215;-66
2022/12/14 04:30:21;;;;;;;24.10;12.70;;;;;;;-9.74;92.15;97136.14;107632;1266;59773;-66
2022/12/14 04:32:59;;;;;;;24.60;14.70;;;;;;;-9.81;92.44;97137.64;107653;1270;59779;-65
2022/12/14 04:35:36;;;;;;;33.20;17.70;;;;;;;-9.86;92.91;97134.76;107648;1265;71319;-65
2022/12/14 04:38:15;;;;;;;28.30;18.00;;;;;;;-9.92;92.55;97132.53;107618;1269;68864;-66
2022/12/14 04:40:52;;;;;;;33.70;18.60;;;;;;;-9.99;92.42;97134.54;107643;1269;68610;-65
2022/12/14 04:43:39;;;;;;;27.20;15.70;;;;;;;-10.03;92.55;97134.36;107668;1269;59730;-65
2022/12/14 04:46:13;;;;;;;31.50;16.90;;;;;;;-10.08;92.69;97132.98;107638;1265;59776;-64
2022/12/14 04:48:43;;;;;;;28.50;16.20;;;;;;;-10.08;93.52;97134.66;107656;1266;70719;-65
2022/12/14 04:51:30;;;;;;;32.10;16.40;;;;;;;-10.10;93.47;97135.52;107665;1269;68272;-65
2022/12/14 04:54:18;;;;;;;28.70;15.60;;;;;;;-10.09;93.23;97137.20;107667;1269;68844;-65
2022/12/14 04:56:50;;;;;;;30.00;14.60;;;;;;;-10.03;94.64;97136.55;107738;1270;59781;-65
2022/12/14 04:59:21;;;;;;;22.30;14.00;;;;;;;-10.05;94.39;97135.20;107705;1266;59700;-64
2022/12/14 05:02:08;;;;;;;28.00;14.20;;;;;;;-10.11;93.78;97134.33;107651;1269;70607;-64
2022/12/14 05:04:55;;;;;;;21.30;12.70;;;;;;;-10.18;93.32;97131.27;107647;1269;68277;-65
2022/12/14 05:07:52;;;;;;;20.20;13.20;;;;;;;-10.25;93.15;97128.73;107374;1269;69922;-65
2022/12/14 05:11:00;;;;;;;21.80;11.40;;;;;;;-10.32;93.01;97125.51;107435;1270;59761;-64
2022/12/14 05:13:50;;;;;;;31.40;17.30;;;;;;;-10.37;93.48;97115.38;107502;1266;59734;-65
2022/12/14 05:16:22;;;;;;;29.20;17.80;;;;;;;-10.37;93.30;97113.70;107625;1269;71345;-64
2022/12/14 05:18:51;;;;;;;32.10;17.70;;;;;;;-10.39;93.09;97108.48;107632;1265;69289;-65
2022/12/14 05:24:08;;;;;;;21.10;14.20;;;;;;;-10.39;93.01;97101.39;107621;1265;60067;-64
2022/12/14 05:26:37;;;;;;;24.70;13.40;;;;;;;-10.39;93.08;97097.17;107641;1269;59697;-66
2022/12/14 05:29:06;;;;;;;24.50;13.90;;;;;;;-10.38;93.04;97095.66;107649;1269;71361;-65
2022/12/14 05:31:35;;;;;;;23.90;14.20;;;;;;;-10.37;92.93;97099.20;107673;1265;69843;-64
2022/12/14 05:34:04;;;;;;;25.40;13.70;;;;;;;-10.33;93.23;97100.23;107633;1260;69879;-65
2022/12/14 05:36:34;;;;;;;21.40;13.50;;;;;;;-10.31;92.98;97111.85;107627;1269;59849;-66
2022/12/14 05:39:03;;;;;;;28.70;16.90;;;;;;;-10.32;92.83;97116.23;107660;1265;59707;-65
2022/12/14 05:41:32;;;;;;;30.20;16.60;;;;;;;-10.33;92.38;97117.59;107644;1269;71887;-65
2022/12/14 05:44:01;;;;;;;28.60;16.10;;;;;;;-10.34;92.48;97118.09;107652;1266;69829;-65
2022/12/14 05:46:30;;;;;;;30.30;19.20;;;;;;;-10.35;92.37;97122.61;107632;1269;69829;-65
2022/12/14 05:48:59;;;;;;;25.90;15.00;;;;;;;-10.36;92.80;97123.13;107654;1269;59690;-65
2022/12/14 05:51:28;;;;;;;21.00;12.50;;;;;;;-10.38;92.96;97122.62;107643;1265;59707;-66
2022/12/14 05:53:57;;;;;;;24.10;15.20;;;;;;;-10.39;93.47;97121.44;107651;1269;72034;-66
2022/12/14 05:56:27;;;;;;;22.50;12.80;;;;;;;-10.40;93.83;97125.80;107618;1269;69269;-65
2022/12/14 05:58:56;;;;;;;23.00;14.90;;;;;;;-10.41;94.02;97128.67;107618;1269;69305;-65
2022/12/14 06:01:25;;;;;;;31.80;18.20;;;;;;;-10.42;93.94;97132.70;107646;1269;59747;-65
2022/12/14 06:03:54;;;;;;;37.60;20.20;;;;;;;-10.44;93.55;97131.52;107609;1269;59658;-65
2022/12/14 06:06:23;;;;;;;32.30;20.30;;;;;;;-10.47;93.33;97134.37;107648;1269;71370;-66
2022/12/14 06:08:52;;;;;;;27.90;19.10;;;;;;;-10.48;93.44;97129.83;107634;1269;69032;-66
2022/12/14 06:11:22;;;;;;;31.10;20.10;;;;;;;-10.49;93.64;97128.29;107559;1269;68386;-66
2022/12/14 06:13:51;;;;;;;29.40;20.20;;;;;;;-10.48;93.88;97128.98;107614;1265;59697;-66
2022/12/14 06:16:23;;;;;;;26.20;17.60;;;;;;;-10.47;93.76;97130.33;107628;1265;59713;-65
2022/12/14 06:18:55;;;;;;;21.60;12.50;;;;;;;-10.46;93.99;97133.52;107631;1265;72013;-65
2022/12/14 06:21:29;;;;;;;24.90;16.10;;;;;;;-10.44;94.00;97135.23;107647;1265;69035;-65
2022/12/14 06:23:59;;;;;;;31.90;18.90;;;;;;;-10.40;94.71;97134.40;107598;1269;69253;-66
2022/12/14 06:26:30;;;;;;;38.00;20.70;;;;;;;-10.37;94.43;97135.25;107633;1265;59847;-66
2022/12/14 06:28:59;;;;;;;26.50;15.40;;;;;;;-10.33;94.05;97132.59;107443;1270;59752;-66
2022/12/14 06:31:30;;;;;;;18.40;11.10;;;;;;;-10.27;93.73;97137.66;107638;1269;72502;-65
2022/12/14 06:34:01;;;;;;;27.80;15.90;;;;;;;-10.21;94.04;97135.98;107680;1269;69851;-66
2022/12/14 06:36:36;;;;;;;28.80;17.20;;;;;;;-10.15;94.18;97140.21;107609;1269;69804;-66
2022/12/14 06:39:11;;;;;;;32.40;21.00;;;;;;;-10.09;93.84;97139.57;107620;1266;60057;-66
2022/12/14 06:41:40;;;;;;;29.50;17.80;;;;;;;-10.02;93.27;97140.77;107594;1269;59998;-66
2022/12/14 06:44:12;;;;;;;40.80;24.20;;;;;;;-9.93;93.51;97142.66;107644;1269;71380;-65
2022/12/14 06:46:42;;;;;;;43.40;25.20;;;;;;;-9.84;93.46;97143.02;107599;1269;69191;-66
2022/12/14 06:49:13;;;;;;;42.70;24.20;;;;;;;-9.72;93.30;97145.58;107599;1269;69748;-65
2022/12/14 06:51:43;;;;;;;32.90;17.90;;;;;;;-9.57;93.26;97144.27;107601;1265;59777;-65
2022/12/14 06:54:14;;;;;;;36.30;19.70;;;;;;;-9.40;93.27;97138.21;107688;1266;59712;-65
2022/12/14 06:56:44;;;;;;;37.60;19.80;;;;;;;-9.23;93.16;97129.79;107663;1269;71037;-65
2022/12/14 06:59:15;;;;;;;32.50;20.50;;;;;;;-9.04;93.24;97127.27;107644;1262;69378;-65
2022/12/14 07:01:44;;;;;;;;;;;;;;;-8.78;93.10;97128.09;107468;1269;69920;-66
2022/12/14 07:04:20;;;;;;;34.80;18.80;;;;;;;-8.32;93.42;97128.64;107659;1273;59780;-66
2022/12/14 07:06:49;;;;;;;40.00;24.80;;;;;;;-7.65;93.66;97124.09;107671;1265;59709;-66
2022/12/14 07:09:18;;;;;;;41.00;25.90;;;;;;;-6.98;92.65;97116.02;107643;1269;71884;-66
2022/12/14 07:11:49;;;;;;;35.70;25.10;;;;;;;-6.29;92.81;97113.48;107691;1265;69230;-65
2022/12/14 07:14:19;;;;;;;45.30;31.50;;;;;;;-5.50;92.52;97113.47;107608;1269;69261;-66
2022/12/14 07:16:49;;;;;;;49.50;29.90;;;;;;;-4.80;92.16;97113.24;107652;1269;59740;-65
2022/12/14 07:19:18;;;;;;;47.20;34.30;;;;;;;-4.39;90.28;97107.09;107701;1269;59711;-65
2022/12/14 07:21:47;;;;;;;51.70;31.80;;;;;;;-4.30;88.82;97106.90;107668;1265;72042;-66
2022/12/14 07:24:16;;;;;;;35.80;24.70;;;;;;;-4.45;83.39;97104.81;107650;1265;70185;-66
2022/12/14 07:26:45;;;;;;;38.80;26.70;;;;;;;-4.58;80.52;97108.61;107644;1265;69248;-66
2022/12/14 07:29:15;;;;;;;40.70;26.60;;;;;;;-4.88;77.53;97109.80;107628;1269;59772;-66
2022/12/14 07:31:44;;;;;;;37.50;26.70;;;;;;;-5.04;77.71;97111.26;107629;1269;59664;-66
2022/12/14 07:34:17;;;;;;;38.70;24.10;;;;;;;-5.17;78.87;97117.07;107486;1270;72106;-66
2022/12/14 07:36:52;;;;;;;36.50;25.50;;;;;;;-5.24;78.89;97117.01;107447;1269;69708;-66
2022/12/14 07:39:21;;;;;;;28.60;21.40;;;;;;;-5.24;80.16;97108.33;107669;1269;69357;-66
2022/12/14 07:41:50;;;;;;;34.20;22.90;;;;;;;-5.14;81.36;97111.23;107619;1269;59729;-66
2022/12/14 07:44:21;;;;;;;34.70;24.10;;;;;;;-5.14;80.88;97104.11;107676;1265;59731;-65
2022/12/14 07:46:51;;;;;;;39.20;24.50;;;;;;;-5.15;81.40;97105.81;107648;1269;70804;-66
2022/12/14 07:49:20;;;;;;;32.40;21.60;;;;;;;-5.07;82.26;97109.27;107638;1269;69764;-66
2022/12/14 07:51:49;;;;;;;29.40;20.20;;;;;;;-4.92;82.34;97109.71;107601;1269;69310;-66
2022/12/14 07:54:18;;;;;;;32.00;22.30;;;;;;;-4.75;82.54;97110.27;107636;1269;59713;-66
2022/12/14 07:56:49;;;;;;;30.10;20.70;;;;;;;-4.65;82.46;97110.61;107649;1265;59664;-64
2022/12/14 07:59:18;;;;;;;28.10;18.80;;;;;;;-4.52;81.80;97109.70;107626;1269;71633;-65
2022/12/14 08:01:47;;;;;;;26.10;16.40;;;;;;;-4.36;81.11;97107.02;107652;1269;67947;-65
2022/12/14 08:04:18;;;;;;;20.10;12.50;;;;;;;-4.13;78.62;97104.02;107637;1269;68552;-65
2022/12/14 08:06:48;;;;;;;18.90;13.30;;;;;;;-3.83;77.47;97108.20;107669;1269;59859;-66
2022/12/14 08:09:18;;;;;;;19.60;13.40;;;;;;;-3.47;78.54;97102.48;107675;1270;59734;-65
2022/12/14 08:11:47;;;;;;;27.00;21.70;;;;;;;-2.76;80.22;97098.27;107657;1269;71386;-65
2022/12/14 08:14:18;;;;;;;27.70;21.60;;;;;;;-2.13;80.67;97094.91;107665;1269;69808;-66
2022/12/14 08:16:47;;;;;;;;;;;;;;;-1.58;82.91;97090.61;107613;1269;69377;-66
2022/12/14 08:19:18;;;;;;;34.00;25.50;;;;;;;-1.18;78.56;97083.75;107625;1269;59773;-66
2022/12/14 08:21:47;;;;;;;38.50;29.80;;;;;;;-1.06;70.35;97081.30;107696;1269;59714;-66
2022/12/14 08:24:15;;;;;;;37.80;27.20;;;;;;;-0.28;70.20;97085.91;107642;1269;70942;-66
2022/12/14 08:26:44;;;;;;;30.40;23.10;;;;;;;0.61;67.12;97084.03;107647;1269;68682;-66
2022/12/14 08:29:17;;;;;;;21.30;14.70;;;;;;;1.47;65.61;97095.88;107644;1271;68403;-66
2022/12/14 08:31:46;;;;;;;23.40;17.00;;;;;;;1.94;65.25;97095.40;107627;1270;60162;-66
2022/12/14 08:34:21;;;;;;;23.80;19.40;;;;;;;1.62;60.25;97088.39;107628;1265;59730;-66
2022/12/14 08:36:50;;;;;;;23.00;16.40;;;;;;;1.20;61.01;97085.80;107647;1269;71994;-65
2022/12/14 08:39:19;;;;;;;21.40;16.30;;;;;;;1.18;62.61;97085.54;107618;1269;69219;-65
2022/12/14 08:41:47;;;;;;;21.80;15.30;;;;;;;1.20;60.32;97089.24;107621;1269;70347;-65
2022/12/14 08:44:17;;;;;;;22.60;14.10;;;;;;;1.80;59.29;97088.99;107616;1265;59779;-66
2022/12/14 08:46:46;;;;;;;18.40;12.90;;;;;;;1.94;58.33;97083.59;107637;1269;59761;-66
2022/12/14 08:49:15;;;;;;;18.10;13.60;;;;;;;1.73;59.04;97080.20;107636;1266;71998;-66
2022/12/14 08:51:44;;;;;;;15.90;12.00;;;;;;;1.29;58.34;97078.94;107624;1270;68823;-66
2022/12/14 08:54:12;;;;;;;13.20;10.40;;;;;;;1.34;59.05;97078.75;107673;1270;69283;-66
2022/12/14 08:56:41;;;;;;;15.10;10.80;;;;;;;1.05;58.79;97075.95;107606;1269;59779;-65
2022/12/14 08:59:11;;;;;;;12.70;10.50;;;;;;;0.74;59.33;97060.71;107608;1269;59699;-66
2022/12/14 09:02:00;;;;;;;12.60;10.20;;;;;;;0.88;59.22;97044.55;107639;1269;71744;-65
2022/12/14 09:04:29;;;;;;;12.70;9.50;;;;;;;1.07;58.82;97040.02;107659;1266;69696;-65
2022/12/14 09:06:58;;;;;;;14.20;9.50;;;;;;;1.07;58.16;97039.48;107659;1269;69312;-66
2022/12/14 09:09:27;;;;;;;13.20;10.10;;;;;;;1.19;58.11;97041.21;107630;1269;59788;-65
2022/12/14 09:11:56;;;;;;;15.50;10.20;;;;;;;1.33;56.98;97048.02;107638;1273;59717;-66
2022/12/14 09:14:25;;;;;;;12.90;10.00;;;;;;;1.45;56.14;97047.38;107638;1269;71401;-66
2022/12/14 09:16:53;;;;;;;12.60;9.70;;;;;;;1.16;56.13;97052.52;107678;1267;69830;-66
2022/12/14 09:19:22;;;;;;;12.30;8.60;;;;;;;1.54;56.01;97061.94;107630;1266;69271;-66
2022/12/14 09:21:51;;;;;;;13.50;9.50;;;;;;;1.58;54.89;97046.98;107646;1269;59777;-66
2022/12/14 09:24:23;;;;;;;13.10;9.60;;;;;;;1.82;56.21;97026.34;107621;1266;59707;-66
2022/12/14 09:26:52;;;;;;;13.90;9.90;;;;;;;1.80;56.83;97019.42;107617;1269;71245;-66
2022/12/14 09:29:21;;;;;;;13.20;10.00;;;;;;;1.71;56.05;97006.04;107651;1269;70098;-66
2022/12/14 09:31:50;;;;;;;13.70;9.90;;;;;;;1.76;56.32;97005.66;107627;1269;68374;-66
2022/12/14 09:34:20;;;;;;;13.00;9.90;;;;;;;1.69;56.51;96999.27;107611;1265;59759;-66
2022/12/14 09:36:49;;;;;;;13.40;10.00;;;;;;;1.87;57.69;96998.14;107675;1270;59680;-66
2022/12/14 09:39:17;;;;;;;16.10;12.20;;;;;;;1.95;57.62;96993.11;107654;1269;71435;-66
2022/12/14 09:41:51;;;;;;;14.00;10.90;;;;;;;1.81;56.31;96978.11;107563;1269;69197;-66
2022/12/14 09:44:46;;;;;;;16.90;12.30;;;;;;;1.81;57.42;96967.14;107538;1270;69585;-66
2022/12/14 09:47:28;;;;;;;20.20;13.60;;;;;;;1.89;57.92;96963.65;107642;1269;59673;-66
2022/12/14 09:50:05;;;;;;;39.00;26.90;;;;;;;1.98;58.39;96954.63;107661;1269;59709;-66
2022/12/14 09:52:47;;;;;;;35.80;25.40;;;;;;;1.95;57.28;96958.23;107621;1269;71376;-66
2022/12/14 09:55:30;;;;;;;27.70;20.20;;;;;;;2.34;57.68;96954.88;107661;1269;69165;-66
2022/12/14 09:58:02;;;;;;;24.50;16.90;;;;;;;2.65;56.58;96951.34;107629;1266;69175;-66
2022/12/14 10:00:43;;;;;;;18.60;14.60;;;;;;;2.89;55.87;96942.59;107642;1269;59700;-66
2022/12/14 10:03:34;;;;;;;23.80;16.50;;;;;;;3.94;54.84;96930.60;107660;1265;59688;-66
2022/12/14 10:06:42;;;;;;;25.00;17.30;;;;;;;5.18;53.01;96931.36;107583;1270;71692;-67
2022/12/14 10:09:13;;;;;;;17.50;12.20;;;;;;;6.00;52.77;96930.80;107637;1269;69674;-67
2022/12/14 10:12:20;;;;;;;19.00;14.50;;;;;;;6.25;47.64;96927.48;107630;1269;68785;-65
2022/12/14 10:15:23;;;;;;;15.10;12.70;;;;;;;6.03;45.89;96924.36;107608;1269;59703;-66
2022/12/14 10:18:04;;;;;;;17.10;13.50;;;;;;;5.99;46.95;96921.33;107644;1270;59735;-66
2022/12/14 10:20:59;;;;;;;13.30;11.20;;;;;;;6.39;45.92;96912.46;107664;1271;69877;-66
2022/12/14 10:23:30;;;;;;;12.70;10.50;;;;;;;7.37;44.79;96907.32;107703;1269;69064;-66
2022/12/14 10:26:06;;;;;;;13.10;10.80;;;;;;;7.77;42.12;96897.33;107292;1265;511714;-66
2022/12/14 10:29:10;;;;;;;14.20;11.40;;;;;;;8.50;44.10;96900.77;107638;1267;59708;-67
2022/12/14 10:32:09;;;;;;;13.40;11.50;;;;;;;9.62;41.44;96894.71;107658;1269;59713;-66
2022/12/14 10:34:40;;;;;;;14.20;11.40;;;;;;;10.05;40.34;96885.06;107626;1269;70556;-66
2022/12/14 10:37:24;;;;;;;14.20;10.80;;;;;;;9.87;37.23;96878.67;107644;1265;68238;-66
2022/12/14 10:40:07;;;;;;;13.50;11.10;;;;;;;10.00;42.70;96885.52;107642;1269;69755;-67
2022/12/14 10:42:48;;;;;;;13.30;10.80;;;;;;;8.91;37.29;96879.89;107629;1269;59773;-67
2022/12/14 10:45:35;;;;;;;12.10;8.90;;;;;;;8.65;39.09;96872.63;107639;1269;59669;-67
2022/12/14 10:48:33;;;;;;;14.20;10.90;;;;;;;8.91;38.75;96865.98;107637;1270;71395;-67
2022/12/14 10:51:43;;;;;;;11.40;9.60;;;;;;;9.06;37.63;96856.38;107647;1269;68672;-65
2022/12/14 10:54:25;;;;;;;14.10;11.40;;;;;;;9.00;37.95;96851.77;107613;1269;69230;-65
2022/12/14 10:56:54;;;;;;;14.00;10.90;;;;;;;8.55;38.91;96848.36;107621;1270;59790;-65
2022/12/14 10:59:27;;;;;;;17.50;13.80;;;;;;;8.69;39.52;96842.49;107656;1269;59707;-66
2022/12/14 11:02:15;;;;;;;15.10;12.50;;;;;;;8.57;39.83;96841.59;107629;1270;70931;-66
2022/12/14 11:04:57;;;;;;;13.80;11.20;;;;;;;7.74;38.40;96838.55;107656;1269;69841;-66
2022/12/14 11:07:37;;;;;;;12.00;9.70;;;;;;;7.01;40.74;96840.63;107617;1270;68898;-67
2022/12/14 11:10:23;;;;;;;15.00;10.70;;;;;;;5.91;42.85;96845.04;107425;1272;59778;-67
2022/12/14 11:13:16;;;;;;;16.30;13.10;;;;;;;5.26;44.78;96837.23;107661;1265;59675;-67
2022/12/14 11:15:51;;;;;;;18.20;13.10;;;;;;;4.63;46.36;96837.02;107644;1269;71409;-65
2022/12/14 11:18:32;;;;;;;16.70;12.30;;;;;;;4.01;47.78;96837.45;107627;1269;69546;-66
2022/12/14 11:21:04;;;;;;;17.40;12.80;;;;;;;3.20;49.68;96835.29;107613;1270;68333;-66
2022/12/14 11:23:38;;;;;;;14.80;10.90;;;;;;;2.55;51.86;96838.41;107630;1269;59709;-66
2022/12/14 11:26:12;;;;;;;25.80;16.10;;;;;;;2.13;54.27;96834.66;107631;1274;59722;-66
2022/12/14 11:28:49;;;;;;;23.80;16.60;;;;;;;2.08;55.37;96831.30;107630;1269;71373;-66
2022/12/14 11:31:36;;;;;;;22.30;16.10;;;;;;;2.20;55.36;96822.29;107650;1269;69196;-66
2022/12/14 11:34:19;;;;;;;20.60;15.60;;;;;;;2.86;55.04;96812.45;107638;1269;69901;-67
2022/12/14 11:36:49;;;;;;;25.10;18.00;;;;;;;3.34;53.45;96806.16;107632;1270;59729;-67
2022/12/14 11:39:24;;;;;;;28.00;18.60;;;;;;;3.47;52.83;96808.36;107670;1270;59711;-67
2022/12/14 11:42:03;;;;;;;33.10;23.30;;;;;;;3.90;51.50;96805.48;107679;1269;71380;-67
2022/12/14 11:44:35;;;;;;;33.60;22.50;;;;;;;4.92;49.68;96800.66;107655;1269;68132;-67
2022/12/14 11:47:25;;;;;;;30.50;21.00;;;;;;;5.59;46.85;96794.63;107648;1265;68406;-67
2022/12/14 11:49:56;;;;;;;29.60;22.20;;;;;;;6.23;44.79;96797.16;107644;1269;59753;-65
2022/12/14 11:52:38;;;;;;;22.30;17.40;;;;;;;7.42;44.20;96791.18;107642;1269;59701;-66
2022/12/14 11:55:17;;;;;;;27.20;20.00;;;;;;;8.16;42.05;96779.66;107658;1267;71755;-67
2022/12/14 11:57:58;;;;;;;20.10;14.40;;;;;;;8.09;39.67;96777.21;107619;1269;69822;-66
2022/12/14 12:00:41;;;;;;;18.50;14.50;;;;;;;7.96;39.50;96775.91;107625;1269;69092;-66
2022/12/14 12:03:21;;;;;;;18.50;13.90;;;;;;;8.30;39.78;96771.02;107648;1274;60133;-66
2022/12/14 12:05:52;;;;;;;16.60;13.90;;;;;;;8.89;38.17;96759.47;107681;1263;59635;-66
2022/12/14 12:08:30;;;;;;;16.60;12.20;;;;;;;9.92;37.69;96756.54;107592;1265;72079;-66